sensor_id;sensor_type;location;lat;lon;timestamp;temperature;humidity
2995;DHT22;35277;49.890;8.222;2024-01-27T00:00:16;22.50;62.80
2995;DHT22;35277;49.890;8.222;2024-01-27T00:02:45;22.50;62.80
2995;DHT22;35277;49.890;8.222;2024-01-27T00:05:13;22.50;62.90
2995;DHT22;35277;49.890;8.222;2024-01-27T00:07:41;22.50;62.90
2995;DHT22;35277;49.890;8.222;2024-01-27T00:10:09;22.50;62.90
2995;DHT22;35277;49.890;8.222;2024-01-27T00:12:37;22.50;62.90
2995;DHT22;35277;49.890;8.222;2024-01-27T00:15:07;22.50;62.90
2995;DHT22;35277;49.890;8.222;2024-01-27T00:17:35;22.50;62.90
2995;DHT22;35277;49.890;8.222;2024-01-27T00:20:06;22.50;62.90
2995;DHT22;35277;49.890;8.222;2024-01-27T00:22:34;22.50;62.90
2995;DHT22;35277;49.890;8.222;2024-01-27T00:25:01;22.50;62.90
2995;DHT22;35277;49.890;8.222;2024-01-27T00:27:29;22.50;62.90
2995;DHT22;35277;49.890;8.222;2024-01-27T00:29:57;22.40;63.20
2995;DHT22;35277;49.890;8.222;2024-01-27T00:32:25;22.40;62.80
2995;DHT22;35277;49.890;8.222;2024-01-27T00:34:53;22.40;62.80
2995;DHT22;35277;49.890;8.222;2024-01-27T00:37:22;22.40;62.80
2995;DHT22;35277;49.890;8.222;2024-01-27T00:39:50;22.40;62.80
2995;DHT22;35277;49.890;8.222;2024-01-27T00:42:18;22.40;62.80
2995;DHT22;35277;49.890;8.222;2024-01-27T00:44:50;22.40;62.90
2995;DHT22;35277;49.890;8.222;2024-01-27T00:47:18;22.50;63.00
2995;DHT22;35277;49.890;8.222;2024-01-27T00:49:46;22.40;62.80
2995;DHT22;35277;49.890;8.222;2024-01-27T00:52:14;22.40;62.80
2995;DHT22;35277;49.890;8.222;2024-01-27T00:54:43;22.40;62.90
2995;DHT22;35277;49.890;8.222;2024-01-27T00:57:11;22.40;62.90
2995;DHT22;35277;49.890;8.222;2024-01-27T00:59:39;22.40;62.90
2995;DHT22;35277;49.890;8.222;2024-01-27T01:02:07;22.40;63.70
2995;DHT22;35277;49.890;8.222;2024-01-27T01:04:35;22.40;62.90
2995;DHT22;35277;49.890;8.222;2024-01-27T01:07:03;22.40;62.90
2995;DHT22;35277;49.890;8.222;2024-01-27T01:09:31;22.40;62.90
2995;DHT22;35277;49.890;8.222;2024-01-27T01:12:00;22.40;63.00
2995;DHT22;35277;49.890;8.222;2024-01-27T01:14:28;22.40;62.90
2995;DHT22;35277;49.890;8.222;2024-01-27T01:16:55;22.40;63.00
2995;DHT22;35277;49.890;8.222;2024-01-27T01:19:23;22.40;63.00
2995;DHT22;35277;49.890;8.222;2024-01-27T01:21:51;22.40;63.00
2995;DHT22;35277;49.890;8.222;2024-01-27T01:24:19;22.40;63.00
2995;DHT22;35277;49.890;8.222;2024-01-27T01:26:47;22.40;63.00
2995;DHT22;35277;49.890;8.222;2024-01-27T01:29:16;22.40;63.00
2995;DHT22;35277;49.890;8.222;2024-01-27T01:31:43;22.40;63.00
2995;DHT22;35277;49.890;8.222;2024-01-27T01:34:11;22.40;63.00
2995;DHT22;35277;49.890;8.222;2024-01-27T01:36:39;22.40;63.00
2995;DHT22;35277;49.890;8.222;2024-01-27T01:39:07;22.40;63.00
2995;DHT22;35277;49.890;8.222;2024-01-27T01:41:35;22.40;63.00
2995;DHT22;35277;49.890;8.222;2024-01-27T01:44:03;22.40;63.10
2995;DHT22;35277;49.890;8.222;2024-01-27T01:46:32;22.40;63.80
2995;DHT22;35277;49.890;8.222;2024-01-27T01:49:00;22.40;63.00
2995;DHT22;35277;49.890;8.222;2024-01-27T01:51:28;22.40;63.20
2995;DHT22;35277;49.890;8.222;2024-01-27T01:53:58;22.40;63.10
2995;DHT22;35277;49.890;8.222;2024-01-27T01:56:26;22.50;63.40
2995;DHT22;35277;49.890;8.222;2024-01-27T01:58:54;22.40;63.20
2995;DHT22;35277;49.890;8.222;2024-01-27T02:01:22;22.40;63.30
2995;DHT22;35277;49.890;8.222;2024-01-27T02:03:55;22.50;63.50
2995;DHT22;35277;49.890;8.222;2024-01-27T02:06:23;22.50;63.40
2995;DHT22;35277;49.890;8.222;2024-01-27T02:08:51;22.40;63.30
2995;DHT22;35277;49.890;8.222;2024-01-27T02:11:19;22.40;63.40
2995;DHT22;35277;49.890;8.222;2024-01-27T02:13:47;22.40;63.40
2995;DHT22;35277;49.890;8.222;2024-01-27T02:16:15;22.40;63.40
2995;DHT22;35277;49.890;8.222;2024-01-27T02:18:44;22.40;63.40
2995;DHT22;35277;49.890;8.222;2024-01-27T02:21:13;22.40;63.50
2995;DHT22;35277;49.890;8.222;2024-01-27T02:23:43;22.40;63.40
2995;DHT22;35277;49.890;8.222;2024-01-27T02:26:12;22.40;63.40
2995;DHT22;35277;49.890;8.222;2024-01-27T02:28:40;22.50;63.50
2995;DHT22;35277;49.890;8.222;2024-01-27T02:31:08;22.40;63.40
2995;DHT22;35277;49.890;8.222;2024-01-27T02:33:35;22.50;63.50
2995;DHT22;35277;49.890;8.222;2024-01-27T02:36:04;22.50;63.60
2995;DHT22;35277;49.890;8.222;2024-01-27T02:38:32;22.50;63.60
2995;DHT22;35277;49.890;8.222;2024-01-27T02:40:59;22.50;63.60
2995;DHT22;35277;49.890;8.222;2024-01-27T02:43:29;22.40;63.50
2995;DHT22;35277;49.890;8.222;2024-01-27T02:45:56;22.40;63.50
2995;DHT22;35277;49.890;8.222;2024-01-27T02:48:24;22.40;63.50
2995;DHT22;35277;49.890;8.222;2024-01-27T02:50:52;22.50;63.60
2995;DHT22;35277;49.890;8.222;2024-01-27T02:53:20;22.50;63.60
2995;DHT22;35277;49.890;8.222;2024-01-27T02:55:48;22.40;64.30
2995;DHT22;35277;49.890;8.222;2024-01-27T02:58:15;22.40;63.50
2995;DHT22;35277;49.890;8.222;2024-01-27T03:00:44;22.40;63.50
2995;DHT22;35277;49.890;8.222;2024-01-27T03:03:12;22.40;63.50
2995;DHT22;35277;49.890;8.222;2024-01-27T03:05:41;22.40;63.70
2995;DHT22;35277;49.890;8.222;2024-01-27T03:08:09;22.40;63.50
2995;DHT22;35277;49.890;8.222;2024-01-27T03:10:37;22.40;63.50
2995;DHT22;35277;49.890;8.222;2024-01-27T03:13:05;22.40;63.50
2995;DHT22;35277;49.890;8.222;2024-01-27T03:15:33;22.40;63.50
2995;DHT22;35277;49.890;8.222;2024-01-27T03:18:02;22.40;63.50
2995;DHT22;35277;49.890;8.222;2024-01-27T03:20:31;22.50;63.70
2995;DHT22;35277;49.890;8.222;2024-01-27T03:22:58;22.40;63.50
2995;DHT22;35277;49.890;8.222;2024-01-27T03:25:26;22.40;63.50
2995;DHT22;35277;49.890;8.222;2024-01-27T03:27:54;22.40;63.50
2995;DHT22;35277;49.890;8.222;2024-01-27T03:30:22;22.40;63.50
2995;DHT22;35277;49.890;8.222;2024-01-27T03:32:50;22.50;63.70
2995;DHT22;35277;49.890;8.222;2024-01-27T03:35:19;22.40;63.50
2995;DHT22;35277;49.890;8.222;2024-01-27T03:37:47;22.40;63.50
2995;DHT22;35277;49.890;8.222;2024-01-27T03:40:15;22.40;63.60
2995;DHT22;35277;49.890;8.222;2024-01-27T03:42:43;22.40;63.60
2995;DHT22;35277;49.890;8.222;2024-01-27T03:45:11;22.40;63.60
2995;DHT22;35277;49.890;8.222;2024-01-27T03:47:39;22.40;63.60
2995;DHT22;35277;49.890;8.222;2024-01-27T03:50:07;22.40;63.60
2995;DHT22;35277;49.890;8.222;2024-01-27T03:52:36;22.40;63.60
2995;DHT22;35277;49.890;8.222;2024-01-27T03:55:05;22.40;63.60
2995;DHT22;35277;49.890;8.222;2024-01-27T03:57:33;22.50;63.70
2995;DHT22;35277;49.890;8.222;2024-01-27T04:00:01;22.40;63.60
2995;DHT22;35277;49.890;8.222;2024-01-27T04:02:30;22.40;63.60
2995;DHT22;35277;49.890;8.222;2024-01-27T04:04:58;22.40;63.60
2995;DHT22;35277;49.890;8.222;2024-01-27T04:07:26;22.40;63.60
2995;DHT22;35277;49.890;8.222;2024-01-27T04:09:55;22.40;63.60
2995;DHT22;35277;49.890;8.222;2024-01-27T04:12:23;22.40;63.60
2995;DHT22;35277;49.890;8.222;2024-01-27T04:14:51;22.40;63.60
2995;DHT22;35277;49.890;8.222;2024-01-27T04:17:18;22.50;63.70
2995;DHT22;35277;49.890;8.222;2024-01-27T04:19:46;22.40;63.60
2995;DHT22;35277;49.890;8.222;2024-01-27T04:22:14;22.40;63.60
2995;DHT22;35277;49.890;8.222;2024-01-27T04:24:42;22.40;63.60
2995;DHT22;35277;49.890;8.222;2024-01-27T04:27:11;22.40;63.60
2995;DHT22;35277;49.890;8.222;2024-01-27T04:29:39;22.40;63.60
2995;DHT22;35277;49.890;8.222;2024-01-27T04:32:08;22.40;63.60
2995;DHT22;35277;49.890;8.222;2024-01-27T04:34:36;22.40;63.60
2995;DHT22;35277;49.890;8.222;2024-01-27T04:37:04;22.40;63.60
2995;DHT22;35277;49.890;8.222;2024-01-27T04:39:32;22.40;63.60
2995;DHT22;35277;49.890;8.222;2024-01-27T04:42:00;22.50;63.70
2995;DHT22;35277;49.890;8.222;2024-01-27T04:44:29;22.40;63.60
2995;DHT22;35277;49.890;8.222;2024-01-27T04:46:57;22.40;63.60
2995;DHT22;35277;49.890;8.222;2024-01-27T04:49:25;22.40;63.60
2995;DHT22;35277;49.890;8.222;2024-01-27T04:51:53;22.40;63.60
2995;DHT22;35277;49.890;8.222;2024-01-27T04:54:22;22.40;63.60
2995;DHT22;35277;49.890;8.222;2024-01-27T04:56:49;22.40;63.60
2995;DHT22;35277;49.890;8.222;2024-01-27T04:59:17;22.40;63.60
2995;DHT22;35277;49.890;8.222;2024-01-27T05:01:46;22.40;63.60
2995;DHT22;35277;49.890;8.222;2024-01-27T05:04:14;22.40;63.60
2995;DHT22;35277;49.890;8.222;2024-01-27T05:06:43;22.40;63.60
2995;DHT22;35277;49.890;8.222;2024-01-27T05:09:12;22.40;63.60
2995;DHT22;35277;49.890;8.222;2024-01-27T05:11:40;22.40;63.60
2995;DHT22;35277;49.890;8.222;2024-01-27T05:14:09;22.40;63.50
2995;DHT22;35277;49.890;8.222;2024-01-27T05:16:37;22.40;63.50
2995;DHT22;35277;49.890;8.222;2024-01-27T05:19:06;22.40;63.40
2995;DHT22;35277;49.890;8.222;2024-01-27T05:21:34;22.40;63.40
2995;DHT22;35277;49.890;8.222;2024-01-27T05:24:02;22.40;63.40
2995;DHT22;35277;49.890;8.222;2024-01-27T05:26:30;22.40;63.40
2995;DHT22;35277;49.890;8.222;2024-01-27T05:28:58;22.40;63.30
2995;DHT22;35277;49.890;8.222;2024-01-27T05:31:26;22.40;63.30
2995;DHT22;35277;49.890;8.222;2024-01-27T05:33:54;22.40;63.20
2995;DHT22;35277;49.890;8.222;2024-01-27T05:36:23;22.40;63.20
2995;DHT22;35277;49.890;8.222;2024-01-27T05:38:51;22.40;63.20
2995;DHT22;35277;49.890;8.222;2024-01-27T05:41:19;22.40;63.10
2995;DHT22;35277;49.890;8.222;2024-01-27T05:43:47;22.40;63.10
2995;DHT22;35277;49.890;8.222;2024-01-27T05:46:14;22.40;63.10
2995;DHT22;35277;49.890;8.222;2024-01-27T05:48:42;22.40;63.00
2995;DHT22;35277;49.890;8.222;2024-01-27T05:51:10;22.40;63.00
2995;DHT22;35277;49.890;8.222;2024-01-27T05:53:40;22.40;63.00
2995;DHT22;35277;49.890;8.222;2024-01-27T05:56:08;22.40;62.90
2995;DHT22;35277;49.890;8.222;2024-01-27T05:58:35;22.40;62.90
2995;DHT22;35277;49.890;8.222;2024-01-27T06:01:03;22.40;62.80
2995;DHT22;35277;49.890;8.222;2024-01-27T06:03:32;22.40;62.80
2995;DHT22;35277;49.890;8.222;2024-01-27T06:06:01;22.40;62.70
2995;DHT22;35277;49.890;8.222;2024-01-27T06:08:29;22.40;62.70
2995;DHT22;35277;49.890;8.222;2024-01-27T06:10:58;22.40;62.70
2995;DHT22;35277;49.890;8.222;2024-01-27T06:13:26;22.40;62.70
2995;DHT22;35277;49.890;8.222;2024-01-27T06:15:54;22.40;62.70
2995;DHT22;35277;49.890;8.222;2024-01-27T06:18:22;22.40;62.60
2995;DHT22;35277;49.890;8.222;2024-01-27T06:20:51;22.40;62.60
2995;DHT22;35277;49.890;8.222;2024-01-27T06:23:18;22.40;62.60
2995;DHT22;35277;49.890;8.222;2024-01-27T06:25:46;22.40;62.50
2995;DHT22;35277;49.890;8.222;2024-01-27T06:28:15;22.40;62.50
2995;DHT22;35277;49.890;8.222;2024-01-27T06:30:44;22.40;62.50
2995;DHT22;35277;49.890;8.222;2024-01-27T06:33:12;22.40;62.50
2995;DHT22;35277;49.890;8.222;2024-01-27T06:35:40;22.40;62.40
2995;DHT22;35277;49.890;8.222;2024-01-27T06:38:08;22.40;62.40
2995;DHT22;35277;49.890;8.222;2024-01-27T06:40:36;22.40;62.30
2995;DHT22;35277;49.890;8.222;2024-01-27T06:43:03;22.40;62.30
2995;DHT22;35277;49.890;8.222;2024-01-27T06:45:33;22.40;62.30
2995;DHT22;35277;49.890;8.222;2024-01-27T06:48:00;22.40;62.30
2995;DHT22;35277;49.890;8.222;2024-01-27T06:50:28;22.30;62.10
2995;DHT22;35277;49.890;8.222;2024-01-27T06:52:56;22.40;62.20
2995;DHT22;35277;49.890;8.222;2024-01-27T06:55:24;22.40;62.20
2995;DHT22;35277;49.890;8.222;2024-01-27T06:57:52;22.40;62.10
2995;DHT22;35277;49.890;8.222;2024-01-27T07:00:21;22.40;62.10
2995;DHT22;35277;49.890;8.222;2024-01-27T07:02:50;22.40;62.10
2995;DHT22;35277;49.890;8.222;2024-01-27T07:05:18;22.40;62.10
2995;DHT22;35277;49.890;8.222;2024-01-27T07:07:46;22.30;61.90
2995;DHT22;35277;49.890;8.222;2024-01-27T07:10:14;22.40;62.10
2995;DHT22;35277;49.890;8.222;2024-01-27T07:12:42;22.40;62.10
2995;DHT22;35277;49.890;8.222;2024-01-27T07:15:10;22.30;61.90
2995;DHT22;35277;49.890;8.222;2024-01-27T07:17:38;22.30;61.90
2995;DHT22;35277;49.890;8.222;2024-01-27T07:20:09;22.30;61.90
2995;DHT22;35277;49.890;8.222;2024-01-27T07:22:36;22.40;62.00
2995;DHT22;35277;49.890;8.222;2024-01-27T07:25:05;22.30;61.80
2995;DHT22;35277;49.890;8.222;2024-01-27T07:27:33;22.40;61.90
2995;DHT22;35277;49.890;8.222;2024-01-27T07:30:02;22.40;61.90
2995;DHT22;35277;49.890;8.222;2024-01-27T07:32:31;22.30;61.70
2995;DHT22;35277;49.890;8.222;2024-01-27T07:34:59;22.30;61.70
2995;DHT22;35277;49.890;8.222;2024-01-27T07:37:29;22.30;61.80
2995;DHT22;35277;49.890;8.222;2024-01-27T07:39:57;22.40;61.90
2995;DHT22;35277;49.890;8.222;2024-01-27T07:42:24;22.40;62.00
2995;DHT22;35277;49.890;8.222;2024-01-27T07:44:52;22.40;62.50
2995;DHT22;35277;49.890;8.222;2024-01-27T07:47:20;22.40;62.70
2995;DHT22;35277;49.890;8.222;2024-01-27T07:49:48;22.40;62.70
2995;DHT22;35277;49.890;8.222;2024-01-27T07:52:16;22.40;62.70
2995;DHT22;35277;49.890;8.222;2024-01-27T07:54:46;22.40;62.50
2995;DHT22;35277;49.890;8.222;2024-01-27T07:57:14;22.40;62.40
2995;DHT22;35277;49.890;8.222;2024-01-27T07:59:42;22.40;62.40
2995;DHT22;35277;49.890;8.222;2024-01-27T08:02:09;22.40;62.40
2995;DHT22;35277;49.890;8.222;2024-01-27T08:04:37;22.40;62.40
2995;DHT22;35277;49.890;8.222;2024-01-27T08:07:05;22.40;62.50
2995;DHT22;35277;49.890;8.222;2024-01-27T08:09:37;22.40;62.50
2995;DHT22;35277;49.890;8.222;2024-01-27T08:12:07;22.40;62.50
2995;DHT22;35277;49.890;8.222;2024-01-27T08:14:35;22.40;62.40
2995;DHT22;35277;49.890;8.222;2024-01-27T08:17:03;22.40;62.50
2995;DHT22;35277;49.890;8.222;2024-01-27T08:19:32;22.40;62.50
2995;DHT22;35277;49.890;8.222;2024-01-27T08:22:00;22.50;62.80
2995;DHT22;35277;49.890;8.222;2024-01-27T08:24:27;22.50;62.80
2995;DHT22;35277;49.890;8.222;2024-01-27T08:26:55;22.50;62.80
2995;DHT22;35277;49.890;8.222;2024-01-27T08:29:24;22.50;62.90
2995;DHT22;35277;49.890;8.222;2024-01-27T08:31:52;22.50;63.50
2995;DHT22;35277;49.890;8.222;2024-01-27T08:34:20;22.50;62.70
2995;DHT22;35277;49.890;8.222;2024-01-27T08:36:48;22.50;62.60
2995;DHT22;35277;49.890;8.222;2024-01-27T08:39:16;22.50;63.40
2995;DHT22;35277;49.890;8.222;2024-01-27T08:41:43;22.50;62.50
2995;DHT22;35277;49.890;8.222;2024-01-27T08:44:12;22.50;62.50
2995;DHT22;35277;49.890;8.222;2024-01-27T08:46:41;22.50;62.40
2995;DHT22;35277;49.890;8.222;2024-01-27T08:49:09;22.50;62.40
2995;DHT22;35277;49.890;8.222;2024-01-27T08:51:37;22.50;62.40
2995;DHT22;35277;49.890;8.222;2024-01-27T08:54:05;22.50;62.40
2995;DHT22;35277;49.890;8.222;2024-01-27T08:56:32;22.50;62.40
2995;DHT22;35277;49.890;8.222;2024-01-27T08:59:00;22.50;62.50
2995;DHT22;35277;49.890;8.222;2024-01-27T09:01:28;22.50;62.50
2995;DHT22;35277;49.890;8.222;2024-01-27T09:03:57;22.50;62.60
2995;DHT22;35277;49.890;8.222;2024-01-27T09:06:25;22.60;62.70
2995;DHT22;35277;49.890;8.222;2024-01-27T09:08:57;22.50;62.60
2995;DHT22;35277;49.890;8.222;2024-01-27T09:11:25;22.50;62.40
2995;DHT22;35277;49.890;8.222;2024-01-27T09:13:54;22.50;62.20
2995;DHT22;35277;49.890;8.222;2024-01-27T09:16:22;22.50;61.90
2995;DHT22;35277;49.890;8.222;2024-01-27T09:18:50;22.50;61.60
2995;DHT22;35277;49.890;8.222;2024-01-27T09:21:21;22.50;61.40
2995;DHT22;35277;49.890;8.222;2024-01-27T09:23:54;22.50;61.20
2995;DHT22;35277;49.890;8.222;2024-01-27T09:26:22;22.50;60.90
2995;DHT22;35277;49.890;8.222;2024-01-27T09:28:50;22.50;60.70
2995;DHT22;35277;49.890;8.222;2024-01-27T09:31:21;22.50;60.50
2995;DHT22;35277;49.890;8.222;2024-01-27T09:33:50;22.50;60.30
2995;DHT22;35277;49.890;8.222;2024-01-27T09:36:20;22.50;60.20
2995;DHT22;35277;49.890;8.222;2024-01-27T09:38:48;22.50;60.20
2995;DHT22;35277;49.890;8.222;2024-01-27T09:41:17;22.50;60.10
2995;DHT22;35277;49.890;8.222;2024-01-27T09:43:46;22.60;60.20
2995;DHT22;35277;49.890;8.222;2024-01-27T09:46:14;22.60;60.20
2995;DHT22;35277;49.890;8.222;2024-01-27T09:48:43;22.60;60.10
2995;DHT22;35277;49.890;8.222;2024-01-27T09:51:11;22.60;60.10
2995;DHT22;35277;49.890;8.222;2024-01-27T09:53:40;22.60;60.20
2995;DHT22;35277;49.890;8.222;2024-01-27T09:56:09;22.60;60.20
2995;DHT22;35277;49.890;8.222;2024-01-27T09:58:37;22.60;60.30
2995;DHT22;35277;49.890;8.222;2024-01-27T10:01:06;22.60;60.50
2995;DHT22;35277;49.890;8.222;2024-01-27T10:03:36;22.60;60.60
2995;DHT22;35277;49.890;8.222;2024-01-27T10:06:08;22.60;60.60
2995;DHT22;35277;49.890;8.222;2024-01-27T10:08:36;22.60;60.50
2995;DHT22;35277;49.890;8.222;2024-01-27T10:11:08;22.60;60.40
2995;DHT22;35277;49.890;8.222;2024-01-27T10:13:36;22.60;60.30
2995;DHT22;35277;49.890;8.222;2024-01-27T10:16:05;22.60;60.40
2995;DHT22;35277;49.890;8.222;2024-01-27T10:18:34;22.60;60.50
2995;DHT22;35277;49.890;8.222;2024-01-27T10:21:12;22.60;60.70
2995;DHT22;35277;49.890;8.222;2024-01-27T10:23:40;22.60;60.90
2995;DHT22;35277;49.890;8.222;2024-01-27T10:26:10;22.60;61.00
2995;DHT22;35277;49.890;8.222;2024-01-27T10:28:38;22.60;61.10
2995;DHT22;35277;49.890;8.222;2024-01-27T10:31:09;22.60;61.30
2995;DHT22;35277;49.890;8.222;2024-01-27T10:33:37;22.60;61.60
2995;DHT22;35277;49.890;8.222;2024-01-27T10:36:06;22.60;61.80
2995;DHT22;35277;49.890;8.222;2024-01-27T10:38:34;22.60;62.00
2995;DHT22;35277;49.890;8.222;2024-01-27T10:41:07;22.70;62.10
2995;DHT22;35277;49.890;8.222;2024-01-27T10:43:38;22.60;61.90
2995;DHT22;35277;49.890;8.222;2024-01-27T10:46:07;22.70;62.00
2995;DHT22;35277;49.890;8.222;2024-01-27T10:48:35;22.70;61.90
2995;DHT22;35277;49.890;8.222;2024-01-27T10:51:09;22.70;62.00
2995;DHT22;35277;49.890;8.222;2024-01-27T10:53:38;22.70;62.00
2995;DHT22;35277;49.890;8.222;2024-01-27T10:56:08;22.70;61.90
2995;DHT22;35277;49.890;8.222;2024-01-27T10:58:40;22.70;61.90
2995;DHT22;35277;49.890;8.222;2024-01-27T11:01:10;22.80;62.00
2995;DHT22;35277;49.890;8.222;2024-01-27T11:03:40;22.80;62.00
2995;DHT22;35277;49.890;8.222;2024-01-27T11:06:08;22.80;61.90
2995;DHT22;35277;49.890;8.222;2024-01-27T11:08:38;22.90;62.00
2995;DHT22;35277;49.890;8.222;2024-01-27T11:11:09;22.90;62.00
2995;DHT22;35277;49.890;8.222;2024-01-27T11:13:39;22.90;62.00
2995;DHT22;35277;49.890;8.222;2024-01-27T11:16:15;23.00;62.10
2995;DHT22;35277;49.890;8.222;2024-01-27T11:18:43;23.00;62.10
2995;DHT22;35277;49.890;8.222;2024-01-27T11:21:14;23.00;62.20
2995;DHT22;35277;49.890;8.222;2024-01-27T11:23:42;23.00;62.30
2995;DHT22;35277;49.890;8.222;2024-01-27T11:26:17;23.00;62.40
2995;DHT22;35277;49.890;8.222;2024-01-27T11:28:48;23.10;62.70
2995;DHT22;35277;49.890;8.222;2024-01-27T11:31:17;23.10;62.80
2995;DHT22;35277;49.890;8.222;2024-01-27T11:33:48;23.20;63.30
2995;DHT22;35277;49.890;8.222;2024-01-27T11:36:20;23.20;63.40
2995;DHT22;35277;49.890;8.222;2024-01-27T11:38:49;23.30;63.50
2995;DHT22;35277;49.890;8.222;2024-01-27T11:41:28;23.30;63.50
2995;DHT22;35277;49.890;8.222;2024-01-27T11:43:58;23.30;63.70
2995;DHT22;35277;49.890;8.222;2024-01-27T11:46:27;23.40;64.00
2995;DHT22;35277;49.890;8.222;2024-01-27T11:48:54;23.40;64.00
2995;DHT22;35277;49.890;8.222;2024-01-27T11:51:25;23.40;64.50
2995;DHT22;35277;49.890;8.222;2024-01-27T11:53:53;23.50;65.20
2995;DHT22;35277;49.890;8.222;2024-01-27T11:56:21;23.60;65.80
2995;DHT22;35277;49.890;8.222;2024-01-27T11:58:49;23.60;66.20
2995;DHT22;35277;49.890;8.222;2024-01-27T12:01:19;23.70;66.70
2995;DHT22;35277;49.890;8.222;2024-01-27T12:03:47;23.70;66.60
2995;DHT22;35277;49.890;8.222;2024-01-27T12:06:15;23.80;66.50
2995;DHT22;35277;49.890;8.222;2024-01-27T12:08:43;23.80;65.90
2995;DHT22;35277;49.890;8.222;2024-01-27T12:11:14;23.90;65.20
2995;DHT22;35277;49.890;8.222;2024-01-27T12:13:48;24.00;64.60
2995;DHT22;35277;49.890;8.222;2024-01-27T12:16:16;24.00;64.00
2995;DHT22;35277;49.890;8.222;2024-01-27T12:18:46;24.00;63.50
2995;DHT22;35277;49.890;8.222;2024-01-27T12:21:18;24.00;63.10
2995;DHT22;35277;49.890;8.222;2024-01-27T12:23:51;24.00;62.70
2995;DHT22;35277;49.890;8.222;2024-01-27T12:26:20;24.00;62.30
2995;DHT22;35277;49.890;8.222;2024-01-27T12:28:48;23.90;61.80
2995;DHT22;35277;49.890;8.222;2024-01-27T12:31:16;23.90;61.50
2995;DHT22;35277;49.890;8.222;2024-01-27T12:33:50;23.90;61.20
2995;DHT22;35277;49.890;8.222;2024-01-27T12:36:19;23.80;60.70
2995;DHT22;35277;49.890;8.222;2024-01-27T12:38:53;23.80;60.50
2995;DHT22;35277;49.890;8.222;2024-01-27T12:41:21;23.80;60.40
2995;DHT22;35277;49.890;8.222;2024-01-27T12:43:49;23.80;60.60
2995;DHT22;35277;49.890;8.222;2024-01-27T12:46:16;23.70;60.50
2995;DHT22;35277;49.890;8.222;2024-01-27T12:48:45;23.70;60.50
2995;DHT22;35277;49.890;8.222;2024-01-27T12:51:14;23.70;60.50
2995;DHT22;35277;49.890;8.222;2024-01-27T12:53:43;23.70;59.00
2995;DHT22;35277;49.890;8.222;2024-01-27T12:56:12;23.50;57.20
2995;DHT22;35277;49.890;8.222;2024-01-27T12:58:40;23.30;56.00
2995;DHT22;35277;49.890;8.222;2024-01-27T13:01:08;23.10;55.90
2995;DHT22;35277;49.890;8.222;2024-01-27T13:03:36;23.00;56.10
2995;DHT22;35277;49.890;8.222;2024-01-27T13:06:08;22.90;56.10
2995;DHT22;35277;49.890;8.222;2024-01-27T13:08:39;22.90;56.20
2995;DHT22;35277;49.890;8.222;2024-01-27T13:11:08;22.90;56.30
2995;DHT22;35277;49.890;8.222;2024-01-27T13:13:36;22.90;56.40
2995;DHT22;35277;49.890;8.222;2024-01-27T13:16:04;22.90;56.40
2995;DHT22;35277;49.890;8.222;2024-01-27T13:18:33;22.90;56.50
2995;DHT22;35277;49.890;8.222;2024-01-27T13:21:00;22.90;56.70
2995;DHT22;35277;49.890;8.222;2024-01-27T13:23:30;22.90;56.70
2995;DHT22;35277;49.890;8.222;2024-01-27T13:26:00;23.00;56.90
2995;DHT22;35277;49.890;8.222;2024-01-27T13:28:44;23.00;56.90
2995;DHT22;35277;49.890;8.222;2024-01-27T13:31:12;23.00;57.10
2995;DHT22;35277;49.890;8.222;2024-01-27T13:33:39;23.00;57.10
2995;DHT22;35277;49.890;8.222;2024-01-27T13:36:08;23.00;57.20
2995;DHT22;35277;49.890;8.222;2024-01-27T13:38:36;23.00;57.30
2995;DHT22;35277;49.890;8.222;2024-01-27T13:41:05;23.10;57.40
2995;DHT22;35277;49.890;8.222;2024-01-27T13:43:33;23.10;57.50
2995;DHT22;35277;49.890;8.222;2024-01-27T13:46:01;23.10;57.50
2995;DHT22;35277;49.890;8.222;2024-01-27T13:48:30;23.10;57.60
2995;DHT22;35277;49.890;8.222;2024-01-27T13:50:58;23.10;57.70
2995;DHT22;35277;49.890;8.222;2024-01-27T13:53:26;23.10;57.70
2995;DHT22;35277;49.890;8.222;2024-01-27T13:56:13;23.10;57.80
2995;DHT22;35277;49.890;8.222;2024-01-27T13:58:41;23.10;57.80
2995;DHT22;35277;49.890;8.222;2024-01-27T14:01:10;23.20;58.00
2995;DHT22;35277;49.890;8.222;2024-01-27T14:03:38;23.20;58.00
2995;DHT22;35277;49.890;8.222;2024-01-27T14:06:06;23.20;58.00
2995;DHT22;35277;49.890;8.222;2024-01-27T14:08:40;23.20;58.10
2995;DHT22;35277;49.890;8.222;2024-01-27T14:11:08;23.20;58.10
2995;DHT22;35277;49.890;8.222;2024-01-27T14:13:37;23.20;58.10
2995;DHT22;35277;49.890;8.222;2024-01-27T14:16:06;23.20;58.10
2995;DHT22;35277;49.890;8.222;2024-01-27T14:18:33;23.20;58.20
2995;DHT22;35277;49.890;8.222;2024-01-27T14:21:02;23.30;58.30
2995;DHT22;35277;49.890;8.222;2024-01-27T14:23:30;23.30;58.30
2995;DHT22;35277;49.890;8.222;2024-01-27T14:25:58;23.30;58.40
2995;DHT22;35277;49.890;8.222;2024-01-27T14:28:26;23.30;58.40
2995;DHT22;35277;49.890;8.222;2024-01-27T14:30:55;23.30;58.40
2995;DHT22;35277;49.890;8.222;2024-01-27T14:33:23;23.30;58.50
2995;DHT22;35277;49.890;8.222;2024-01-27T14:35:51;23.30;58.50
2995;DHT22;35277;49.890;8.222;2024-01-27T14:38:19;23.30;58.50
2995;DHT22;35277;49.890;8.222;2024-01-27T14:40:47;23.30;58.50
2995;DHT22;35277;49.890;8.222;2024-01-27T14:43:15;23.30;58.50
2995;DHT22;35277;49.890;8.222;2024-01-27T14:45:46;23.30;58.60
2995;DHT22;35277;49.890;8.222;2024-01-27T14:48:15;23.30;58.60
2995;DHT22;35277;49.890;8.222;2024-01-27T14:50:46;23.40;58.60
2995;DHT22;35277;49.890;8.222;2024-01-27T14:53:19;23.40;58.60
2995;DHT22;35277;49.890;8.222;2024-01-27T14:55:47;23.40;58.70
2995;DHT22;35277;49.890;8.222;2024-01-27T14:58:14;23.40;58.70
2995;DHT22;35277;49.890;8.222;2024-01-27T15:00:42;23.40;58.70
2995;DHT22;35277;49.890;8.222;2024-01-27T15:03:10;23.40;58.70
2995;DHT22;35277;49.890;8.222;2024-01-27T15:05:41;23.40;58.70
2995;DHT22;35277;49.890;8.222;2024-01-27T15:08:08;23.40;58.70
2995;DHT22;35277;49.890;8.222;2024-01-27T15:10:36;23.40;58.70
2995;DHT22;35277;49.890;8.222;2024-01-27T15:13:06;23.40;58.70
2995;DHT22;35277;49.890;8.222;2024-01-27T15:15:33;23.40;58.70
2995;DHT22;35277;49.890;8.222;2024-01-27T15:18:01;23.40;58.70
2995;DHT22;35277;49.890;8.222;2024-01-27T15:20:29;23.40;58.70
2995;DHT22;35277;49.890;8.222;2024-01-27T15:22:59;23.40;58.80
2995;DHT22;35277;49.890;8.222;2024-01-27T15:25:27;23.40;58.90
2995;DHT22;35277;49.890;8.222;2024-01-27T15:27:54;23.40;58.90
2995;DHT22;35277;49.890;8.222;2024-01-27T15:30:22;23.40;58.90
2995;DHT22;35277;49.890;8.222;2024-01-27T15:32:50;23.40;59.00
2995;DHT22;35277;49.890;8.222;2024-01-27T15:35:18;23.40;59.00
2995;DHT22;35277;49.890;8.222;2024-01-27T15:37:46;23.40;59.00
2995;DHT22;35277;49.890;8.222;2024-01-27T15:40:15;23.40;59.00
2995;DHT22;35277;49.890;8.222;2024-01-27T15:42:43;23.40;59.10
2995;DHT22;35277;49.890;8.222;2024-01-27T15:45:11;23.30;59.00
2995;DHT22;35277;49.890;8.222;2024-01-27T15:47:39;23.30;59.10
2995;DHT22;35277;49.890;8.222;2024-01-27T15:50:09;23.30;59.10
2995;DHT22;35277;49.890;8.222;2024-01-27T15:52:40;23.30;59.20